Time;durP1;ratioP1;P1;durP2;ratioP2;P2;SDS_P1;SDS_P2;PMS_P1;PMS_P2;Temp;Humidity;BMP_temperature;BMP_pressure;BME280_temperature;BME280_humidity;BME280_pressure;Samples;Min_cycle;Max_cycle;Signal;HPM_P1;HPM_P2
2023/06/01 00:01:47;;;;;;;5.87;4.73;;;21.50;44.60;;;;;;5016100;28;20180;-65
2023/06/01 00:04:16;;;;;;;5.30;4.57;;;21.40;44.70;;;;;;5014235;28;20195;-65
2023/06/01 00:06:43;;;;;;;6.20;4.60;;;21.40;44.80;;;;;;5015484;28;20185;-65
2023/06/01 00:09:08;;;;;;;8.07;5.07;;;21.30;44.90;;;;;;5016951;28;20436;-65
2023/06/01 00:11:34;;;;;;;4.50;4.10;;;21.30;45.00;;;;;;5012011;28;20937;-65
2023/06/01 00:14:00;;;;;;;7.83;4.70;;;21.30;45.10;;;;;;5017649;28;20925;-65
2023/06/01 00:16:25;;;;;;;5.10;4.50;;;21.20;45.10;;;;;;5013755;28;20184;-65
2023/06/01 00:18:52;;;;;;;6.53;4.10;;;21.10;45.20;;;;;;5016320;28;20243;-65
2023/06/01 00:21:18;;;;;;;5.70;4.30;;;21.10;45.40;;;;;;5011605;28;20211;-65
2023/06/01 00:23:44;;;;;;;8.37;4.63;;;21.10;45.40;;;;;;5014944;28;20419;-65
2023/06/01 00:26:10;;;;;;;6.77;4.40;;;21.00;45.40;;;;;;5008510;28;20981;-65
2023/06/01 00:28:36;;;;;;;5.40;4.27;;;21.00;45.60;;;;;;5012668;28;20466;-65
2023/06/01 00:31:01;;;;;;;6.30;5.10;;;20.90;45.70;;;;;;5015938;28;20419;-65
2023/06/01 00:33:27;;;;;;;5.60;5.00;;;20.90;45.90;;;;;;5017932;28;20177;-65
2023/06/01 00:35:52;;;;;;;6.87;4.63;;;20.90;46.00;;;;;;5012027;28;20271;-65
2023/06/01 00:38:18;;;;;;;5.80;4.20;;;20.80;46.00;;;;;;5008892;28;20580;-65
2023/06/01 00:40:44;;;;;;;8.70;4.10;;;20.80;46.20;;;;;;5014014;28;20213;-65
2023/06/01 00:43:10;;;;;;;8.40;4.40;;;20.70;46.30;;;;;;5019869;28;20778;-65
2023/06/01 00:45:37;;;;;;;7.40;4.43;;;20.70;46.40;;;;;;5012036;28;20259;-65
2023/06/01 00:48:03;;;;;;;7.13;4.43;;;20.70;46.70;;;;;;5012882;28;20172;-65
2023/06/01 00:50:30;;;;;;;4.50;4.10;;;20.60;46.70;;;;;;5017606;28;20439;-66
2023/06/01 00:52:57;;;;;;;4.20;3.77;;;20.60;47.00;;;;;;5009634;28;20815;-66
2023/06/01 00:55:22;;;;;;;5.40;4.47;;;20.60;47.20;;;;;;5015168;28;20455;-66
2023/06/01 00:57:50;;;;;;;5.73;4.40;;;20.50;47.40;;;;;;5014825;28;20797;-65
2023/06/01 01:00:17;;;;;;;5.23;4.60;;;20.50;47.50;;;;;;5015561;28;20220;-65
2023/06/01 01:02:48;;;;;;;7.33;4.20;;;20.50;47.60;;;;;;5016636;28;20435;-66
2023/06/01 01:05:15;;;;;;;7.73;4.40;;;20.50;47.70;;;;;;5016202;28;20428;-66
2023/06/01 01:07:41;;;;;;;4.43;4.03;;;20.50;47.80;;;;;;5012174;28;20578;-66
2023/06/01 01:10:15;;;;;;;5.63;4.50;;;20.50;47.90;;;;;;5019726;28;20530;-66
2023/06/01 01:13:07;;;;;;;5.97;4.40;;;20.50;47.90;;;;;;5014673;28;20491;-65
2023/06/01 01:15:55;;;;;;;6.23;4.30;;;20.40;47.80;;;;;;5009451;28;20598;-65
2023/06/01 01:18:54;;;;;;;6.60;4.30;;;20.40;47.80;;;;;;5014686;28;20455;-66
2023/06/01 01:21:29;;;;;;;6.23;4.80;;;20.40;47.90;;;;;;5014146;28;20471;-66
2023/06/01 01:24:16;;;;;;;8.83;4.50;;;20.30;47.70;;;;;;5013785;28;20437;-66
2023/06/01 01:26:50;;;;;;;6.70;4.40;;;20.30;47.60;;;;;;5013797;28;20408;-66
2023/06/01 01:29:16;;;;;;;7.47;4.57;;;20.20;47.60;;;;;;5013943;28;20442;-66
2023/06/01 01:31:45;;;;;;;5.97;4.33;;;20.20;47.60;;;;;;5019580;28;20435;-66
2023/06/01 01:34:10;;;;;;;4.30;3.77;;;20.10;47.70;;;;;;5009470;28;20435;-66
2023/06/01 01:36:37;;;;;;;6.90;4.30;;;20.10;47.80;;;;;;5015769;28;21454;-65
2023/06/01 01:39:03;;;;;;;7.13;4.00;;;20.10;47.80;;;;;;5012210;28;20189;-65
2023/06/01 01:41:29;;;;;;;6.60;4.30;;;20.10;47.90;;;;;;5021390;28;20475;-65
2023/06/01 01:43:57;;;;;;;5.90;4.00;;;20.00;47.90;;;;;;5017517;28;20481;-66
2023/06/01 01:46:29;;;;;;;7.57;4.27;;;20.00;48.10;;;;;;5012676;28;20181;-65
2023/06/01 01:49:22;;;;;;;9.43;3.97;;;20.00;48.10;;;;;;5012088;28;20450;-65
2023/06/01 01:51:53;;;;;;;5.40;4.27;;;19.90;48.20;;;;;;5014726;28;20416;-65
2023/06/01 01:54:21;;;;;;;5.43;4.37;;;19.90;48.40;;;;;;5014479;28;20791;-65
2023/06/01 01:56:48;;;;;;;6.70;4.20;;;19.90;48.60;;;;;;5014762;28;20412;-66
2023/06/01 01:59:15;;;;;;;5.43;4.43;;;19.80;48.70;;;;;;5008911;28;20432;-65
2023/06/01 02:01:44;;;;;;;4.77;3.97;;;19.80;48.90;;;;;;5010492;28;20441;-65
2023/06/01 02:04:10;;;;;;;4.80;3.90;;;19.80;48.90;;;;;;5014977;28;20474;-65
2023/06/01 02:06:36;;;;;;;5.27;4.30;;;19.70;49.00;;;;;;5014571;28;20510;-65
2023/06/01 02:09:06;;;;;;;7.40;4.03;;;19.70;49.00;;;;;;5007017;28;20858;-66
2023/06/01 02:11:33;;;;;;;5.97;4.20;;;19.70;49.30;;;;;;5015787;28;20980;-65
2023/06/01 02:13:59;;;;;;;7.17;4.30;;;19.70;49.40;;;;;;5020463;28;20935;-65
2023/06/01 02:16:25;;;;;;;5.10;4.00;;;19.60;49.50;;;;;;5009252;28;20493;-65
2023/06/01 02:18:51;;;;;;;4.17;3.77;;;19.60;49.60;;;;;;5009483;28;20209;-65
2023/06/01 02:21:17;;;;;;;5.13;3.90;;;19.60;49.90;;;;;;5009951;28;20517;-65
2023/06/01 02:23:43;;;;;;;4.40;3.97;;;19.50;50.00;;;;;;5016439;28;20223;-65
2023/06/01 02:26:11;;;;;;;6.70;4.40;;;19.50;50.30;;;;;;5013245;28;20486;-65
2023/06/01 02:28:38;;;;;;;8.03;3.90;;;19.50;50.30;;;;;;5009014;28;20208;-65
2023/06/01 02:31:05;;;;;;;4.47;4.00;;;19.50;50.50;;;;;;5008253;28;20423;-65
2023/06/01 02:33:30;;;;;;;5.37;4.13;;;19.40;50.60;;;;;;5021082;28;20503;-65
2023/06/01 02:35:56;;;;;;;8.10;4.30;;;19.40;50.70;;;;;;5020661;28;20806;-65
2023/06/01 02:38:22;;;;;;;5.87;4.03;;;19.40;50.90;;;;;;5014172;28;20204;-65
2023/06/01 02:40:47;;;;;;;5.47;4.27;;;19.40;51.00;;;;;;5014197;28;20262;-65
2023/06/01 02:43:13;;;;;;;6.40;4.13;;;19.30;51.00;;;;;;5014740;28;20181;-65
2023/06/01 02:45:38;;;;;;;5.63;4.40;;;19.30;51.00;;;;;;5014179;28;20449;-65
2023/06/01 02:48:04;;;;;;;6.87;4.43;;;19.30;51.10;;;;;;5015297;28;20221;-65
2023/06/01 02:50:30;;;;;;;5.50;4.07;;;19.20;51.20;;;;;;5014801;28;20192;-65
2023/06/01 02:52:55;;;;;;;5.10;4.43;;;19.10;51.30;;;;;;5018704;28;20195;-65
2023/06/01 02:55:21;;;;;;;5.70;4.57;;;19.10;51.40;;;;;;5012216;28;20188;-65
2023/06/01 02:57:46;;;;;;;5.23;4.30;;;19.10;51.60;;;;;;5011730;28;20271;-65
2023/06/01 03:00:15;;;;;;;5.00;4.10;;;19.00;51.80;;;;;;5012416;28;20562;-65
2023/06/01 03:02:45;;;;;;;4.30;3.90;;;19.00;51.90;;;;;;5015465;28;20177;-65
2023/06/01 03:05:14;;;;;;;6.73;4.70;;;19.00;52.10;;;;;;5017462;28;21146;-65
2023/06/01 03:07:44;;;;;;;5.33;4.23;;;18.90;52.30;;;;;;5016356;28;20457;-65
2023/06/01 03:10:10;;;;;;;11.43;4.90;;;18.90;52.40;;;;;;5015238;28;20525;-65
2023/06/01 03:12:36;;;;;;;9.43;4.77;;;18.80;52.50;;;;;;5015101;28;20424;-65
2023/06/01 03:15:02;;;;;;;14.57;4.67;;;18.80;52.70;;;;;;5018791;28;20546;-65
2023/06/01 03:17:28;;;;;;;7.73;4.33;;;18.80;52.80;;;;;;5012742;28;20427;-65
2023/06/01 03:19:54;;;;;;;4.90;4.40;;;18.70;53.00;;;;;;5015584;28;20482;-65
2023/06/01 03:22:19;;;;;;;6.77;4.60;;;18.70;53.10;;;;;;5013232;28;20626;-65
2023/06/01 03:24:49;;;;;;;4.43;4.00;;;18.70;53.30;;;;;;5014527;28;20671;-65
2023/06/01 03:27:15;;;;;;;5.20;4.10;;;18.70;53.50;;;;;;5018586;28;20173;-65
2023/06/01 03:29:41;;;;;;;5.30;4.47;;;18.60;53.50;;;;;;5015297;28;20459;-65
2023/06/01 03:32:07;;;;;;;4.57;4.07;;;18.60;53.80;;;;;;5014198;28;20431;-65
2023/06/01 03:34:33;;;;;;;4.77;4.20;;;18.50;53.90;;;;;;5016468;28;20184;-65
2023/06/01 03:36:59;;;;;;;5.70;4.10;;;18.50;54.20;;;;;;5019190;28;20449;-65
2023/06/01 03:39:24;;;;;;;8.33;4.10;;;18.50;54.30;;;;;;5018080;28;20816;-65
2023/06/01 03:41:50;;;;;;;11.63;4.80;;;18.50;54.50;;;;;;5013636;28;20255;-65
2023/06/01 03:44:15;;;;;;;6.07;3.93;;;18.40;54.70;;;;;;5017234;28;20623;-65
2023/06/01 03:46:41;;;;;;;5.50;4.50;;;18.40;54.80;;;;;;5017207;28;20178;-65
2023/06/01 03:49:06;;;;;;;5.73;4.80;;;18.40;55.00;;;;;;5012045;28;20327;-65
2023/06/01 03:51:32;;;;;;;6.17;4.30;;;18.40;55.10;;;;;;5013623;28;20192;-65
2023/06/01 03:53:57;;;;;;;5.23;4.27;;;18.40;55.30;;;;;;5016843;28;20193;-65
2023/06/01 03:56:23;;;;;;;6.50;4.17;;;18.40;55.50;;;;;;5014608;28;20185;-65
2023/06/01 03:58:50;;;;;;;6.03;4.53;;;18.40;55.50;;;;;;5013793;28;20209;-65
2023/06/01 04:01:19;;;;;;;9.57;5.10;;;18.30;56.10;;;;;;5015114;28;20282;-65
2023/06/01 04:03:46;;;;;;;6.60;4.40;;;18.40;55.80;;;;;;5016171;28;20972;-65
2023/06/01 04:06:13;;;;;;;5.33;4.83;;;18.40;56.00;;;;;;5023373;28;20438;-65
2023/06/01 04:08:48;;;;;;;7.33;4.70;;;18.30;56.20;;;;;;5018372;28;20503;-65
2023/06/01 04:11:17;;;;;;;6.20;4.30;;;18.30;56.20;;;;;;5012819;28;20435;-65
2023/06/01 04:13:43;;;;;;;11.97;5.97;;;18.40;56.20;;;;;;5010034;28;20435;-65
2023/06/01 04:16:12;;;;;;;5.33;4.50;;;18.40;56.20;;;;;;5013295;28;20421;-65
2023/06/01 04:18:38;;;;;;;7.10;4.80;;;18.40;56.40;;;;;;5013002;28;20973;-65
2023/06/01 04:21:03;;;;;;;10.80;5.23;;;18.40;56.60;;;;;;5007555;28;20468;-65
2023/06/01 04:23:30;;;;;;;5.40;4.33;;;18.40;56.60;;;;;;5010733;28;20216;-65
2023/06/01 04:25:59;;;;;;;6.97;4.77;;;18.40;56.80;;;;;;5013665;28;20208;-65
2023/06/01 04:28:28;;;;;;;8.80;4.70;;;18.40;56.90;;;;;;5011294;28;20574;-65
2023/06/01 04:30:55;;;;;;;8.90;5.07;;;18.40;57.10;;;;;;5016139;28;20524;-65
2023/06/01 04:33:22;;;;;;;7.97;5.00;;;18.40;57.20;;;;;;5008843;28;20900;-65
2023/06/01 04:35:48;;;;;;;5.80;4.70;;;18.40;57.40;;;;;;5012099;28;21244;-65
2023/06/01 04:38:16;;;;;;;5.47;4.77;;;18.40;57.30;;;;;;5013234;28;20582;-65
2023/06/01 04:40:44;;;;;;;7.07;5.17;;;18.40;57.30;;;;;;5014935;28;20506;-65
2023/06/01 04:43:11;;;;;;;5.50;4.50;;;18.40;57.30;;;;;;5013493;28;20420;-65
2023/06/01 04:45:38;;;;;;;9.80;5.30;;;18.40;57.40;;;;;;5015537;28;20534;-65
2023/06/01 04:48:08;;;;;;;7.80;4.90;;;18.40;57.50;;;;;;5014335;28;20807;-65
2023/06/01 04:50:34;;;;;;;4.80;4.30;;;18.50;57.60;;;;;;5013541;28;20443;-65
2023/06/01 04:53:00;;;;;;;5.10;4.43;;;18.50;57.70;;;;;;5013864;28;20436;-64
2023/06/01 04:55:26;;;;;;;6.00;4.67;;;18.50;57.80;;;;;;5015810;28;20474;-65
2023/06/01 04:57:52;;;;;;;7.90;4.63;;;18.50;57.80;;;;;;5016495;28;20442;-65
2023/06/01 05:00:18;;;;;;;5.70;5.10;;;18.50;57.90;;;;;;5016551;28;21012;-66
2023/06/01 05:02:46;;;;;;;7.73;4.80;;;18.50;57.80;;;;;;5016203;28;20683;-65
2023/06/01 05:05:13;;;;;;;7.00;4.87;;;18.50;57.90;;;;;;5017876;28;20419;-65
2023/06/01 05:07:39;;;;;;;5.87;5.20;;;18.50;58.10;;;;;;5014934;28;20423;-65
2023/06/01 05:10:06;;;;;;;6.63;5.37;;;18.60;58.20;;;;;;5014411;28;20459;-65
2023/06/01 05:12:33;;;;;;;6.20;4.53;;;18.60;58.10;;;;;;5011176;28;20509;-65
2023/06/01 05:15:00;;;;;;;6.43;4.60;;;18.60;58.00;;;;;;5018455;28;20423;-65
2023/06/01 05:17:26;;;;;;;7.40;4.70;;;18.60;58.00;;;;;;5013469;28;20447;-65
2023/06/01 05:19:51;;;;;;;6.90;4.80;;;18.70;58.20;;;;;;5017554;28;20478;-65
2023/06/01 05:22:17;;;;;;;5.57;4.90;;;18.70;58.80;;;;;;5013708;28;20725;-65
2023/06/01 05:24:43;;;;;;;5.93;5.07;;;18.70;58.20;;;;;;5010772;28;20191;-65
2023/06/01 05:27:08;;;;;;;6.20;4.53;;;18.70;58.10;;;;;;5014415;28;20168;-65
2023/06/01 05:29:34;;;;;;;5.67;5.13;;;18.70;58.90;;;;;;5009201;28;20242;-65
2023/06/01 05:32:00;;;;;;;6.33;5.13;;;18.80;59.00;;;;;;5017423;28;20176;-65
2023/06/01 05:34:25;;;;;;;9.57;4.63;;;18.80;58.40;;;;;;5006591;28;20180;-65
2023/06/01 05:36:51;;;;;;;6.80;5.27;;;18.80;58.40;;;;;;5014059;28;20181;-66
2023/06/01 05:39:16;;;;;;;5.63;5.03;;;18.80;58.30;;;;;;5008770;28;20201;-65
2023/06/01 05:41:42;;;;;;;5.37;4.87;;;18.80;58.40;;;;;;5014670;28;20192;-65
2023/06/01 05:44:08;;;;;;;5.50;4.60;;;18.90;58.50;;;;;;5012104;28;20264;-65
2023/06/01 05:46:33;;;;;;;10.27;5.27;;;18.80;58.60;;;;;;5007512;28;20757;-65
2023/06/01 05:48:59;;;;;;;9.27;4.80;;;18.90;58.70;;;;;;5011732;28;20200;-65
2023/06/01 05:51:25;;;;;;;8.93;4.80;;;18.90;58.60;;;;;;5013399;28;20212;-66
2023/06/01 05:53:50;;;;;;;6.27;5.00;;;18.90;58.50;;;;;;5015621;28;21025;-65
2023/06/01 05:56:16;;;;;;;8.90;5.50;;;19.00;59.30;;;;;;5012945;28;20191;-65
2023/06/01 05:58:43;;;;;;;11.53;5.47;;;19.00;58.70;;;;;;5014552;28;20214;-65
2023/06/01 06:01:10;;;;;;;8.67;5.27;;;19.10;58.70;;;;;;5013091;28;20292;-65
2023/06/01 06:03:35;;;;;;;9.43;5.30;;;19.10;58.60;;;;;;5014141;28;20435;-65
2023/06/01 06:06:01;;;;;;;6.43;4.57;;;19.20;58.70;;;;;;5011707;28;20838;-66
2023/06/01 06:08:27;;;;;;;6.53;4.77;;;19.20;58.70;;;;;;5005857;28;20694;-65
2023/06/01 06:10:52;;;;;;;6.07;5.23;;;19.30;58.70;;;;;;5014265;28;20453;-65
2023/06/01 06:13:18;;;;;;;6.70;5.33;;;19.30;58.50;;;;;;5016852;28;20259;-65
2023/06/01 06:15:44;;;;;;;17.10;14.17;;;19.40;58.50;;;;;;5015418;28;20707;-65
2023/06/01 06:18:10;;;;;;;12.70;10.83;;;19.40;58.40;;;;;;5010212;28;20464;-65
2023/06/01 06:20:35;;;;;;;10.30;8.43;;;19.40;58.30;;;;;;4977024;28;1054496;-65
2023/06/01 06:23:01;;;;;;;9.10;6.40;;;19.50;58.20;;;;;;5017389;28;21220;-65
2023/06/01 06:25:27;;;;;;;13.30;11.43;;;19.60;58.10;;;;;;5010556;28;20180;-65
2023/06/01 06:27:52;;;;;;;8.47;5.03;;;19.60;58.00;;;;;;5013352;28;20177;-65
2023/06/01 06:30:18;;;;;;;6.40;5.60;;;19.60;57.90;;;;;;5011817;28;20189;-65
2023/06/01 06:32:43;;;;;;;5.90;5.23;;;19.70;57.90;;;;;;5010108;28;20200;-65
2023/06/01 06:35:12;;;;;;;8.30;6.23;;;19.80;57.80;;;;;;5016113;28;20188;-65
2023/06/01 06:37:40;;;;;;;5.57;4.53;;;19.80;57.40;;;;;;5013647;28;20185;-65
2023/06/01 06:40:06;;;;;;;13.50;4.60;;;19.90;57.10;;;;;;5011042;28;20468;-65
2023/06/01 06:42:32;;;;;;;7.53;4.20;;;19.90;56.80;;;;;;5013148;28;20526;-65
2023/06/01 06:44:57;;;;;;;7.60;4.23;;;20.00;56.60;;;;;;5018171;28;20436;-65
2023/06/01 06:47:24;;;;;;;5.63;4.30;;;20.00;56.20;;;;;;5014806;28;20638;-65
2023/06/01 06:49:51;;;;;;;4.00;3.60;;;20.10;56.10;;;;;;5009199;28;20302;-65
2023/06/01 06:52:16;;;;;;;8.03;4.03;;;20.20;55.90;;;;;;5014029;28;20869;-65
2023/06/01 06:54:43;;;;;;;5.50;4.20;;;20.20;55.80;;;;;;5012404;28;20446;-65
2023/06/01 06:57:10;;;;;;;8.57;4.63;;;20.20;55.80;;;;;;5017654;28;20201;-65
2023/06/01 06:59:36;;;;;;;7.60;5.50;;;20.30;55.80;;;;;;5011010;28;20465;-65
2023/06/01 07:02:02;;;;;;;8.80;4.40;;;20.30;55.70;;;;;;5017355;28;20868;-65
2023/06/01 07:04:28;;;;;;;6.90;4.90;;;20.40;55.50;;;;;;5012328;28;20407;-65
2023/06/01 07:06:54;;;;;;;5.07;3.93;;;20.50;55.50;;;;;;5014062;28;20188;-65
2023/06/01 07:09:19;;;;;;;7.37;4.40;;;20.50;55.50;;;;;;5011961;28;20455;-65
2023/06/01 07:11:47;;;;;;;9.73;4.70;;;20.60;55.50;;;;;;5012820;28;20195;-64
2023/06/01 07:14:16;;;;;;;9.10;4.37;;;20.60;55.50;;;;;;5014285;28;20275;-64
2023/06/01 07:16:41;;;;;;;4.97;4.27;;;20.60;55.50;;;;;;5012073;28;20423;-64
2023/06/01 07:19:07;;;;;;;6.07;4.43;;;20.70;55.50;;;;;;5016486;28;20467;-65
2023/06/01 07:21:33;;;;;;;6.03;4.10;;;20.70;55.30;;;;;;5014153;28;20205;-65
2023/06/01 07:23:59;;;;;;;6.67;4.40;;;20.80;55.20;;;;;;5022447;28;20442;-65
2023/06/01 07:26:28;;;;;;;7.23;4.10;;;20.90;55.10;;;;;;5013821;28;20753;-64
2023/06/01 07:28:54;;;;;;;7.20;4.37;;;20.90;55.10;;;;;;5013783;28;20221;-65
2023/06/01 07:31:21;;;;;;;5.43;4.20;;;20.90;55.10;;;;;;5020557;28;20493;-65
2023/06/01 07:33:46;;;;;;;10.37;4.53;;;21.00;55.10;;;;;;5020573;28;20893;-65
2023/06/01 07:36:12;;;;;;;5.87;4.13;;;21.00;54.90;;;;;;5017208;28;20446;-64
2023/06/01 07:38:38;;;;;;;4.93;4.10;;;21.10;55.00;;;;;;5017434;28;20217;-65
2023/06/01 07:41:03;;;;;;;11.30;4.90;;;21.20;55.10;;;;;;5008652;28;20248;-65
2023/06/01 07:43:29;;;;;;;7.90;4.90;;;21.20;55.00;;;;;;5018043;28;20192;-65
2023/06/01 07:45:55;;;;;;;5.13;4.50;;;21.20;55.00;;;;;;5012210;28;20185;-65
2023/06/01 07:48:21;;;;;;;5.63;3.80;;;21.30;54.80;;;;;;5021286;28;20212;-65
2023/06/01 07:50:47;;;;;;;6.50;3.80;;;21.30;54.70;;;;;;5014304;28;20447;-65
2023/06/01 07:53:13;;;;;;;8.37;4.53;;;21.40;54.60;;;;;;5015507;28;20477;-65
2023/06/01 07:55:39;;;;;;;5.47;4.83;;;21.40;54.40;;;;;;5016372;28;20263;-65
2023/06/01 07:58:05;;;;;;;13.07;8.37;;;21.50;55.10;;;;;;5012385;28;20467;-65
2023/06/01 08:00:31;;;;;;;9.90;5.23;;;21.60;54.70;;;;;;5016031;28;20211;-65
2023/06/01 08:02:58;;;;;;;7.83;7.07;;;21.60;54.70;;;;;;5012557;28;20858;-65
2023/06/01 08:05:24;;;;;;;4.97;4.47;;;21.70;54.60;;;;;;5012283;28;20794;-65
2023/06/01 08:07:50;;;;;;;9.80;5.30;;;21.70;54.40;;;;;;5009413;28;20439;-65
2023/06/01 08:10:16;;;;;;;5.77;4.50;;;21.80;54.20;;;;;;5013702;28;20181;-65
2023/06/01 08:12:42;;;;;;;6.43;4.37;;;21.90;54.00;;;;;;5014256;28;20197;-65
2023/06/01 08:15:11;;;;;;;14.80;12.33;;;21.90;53.80;;;;;;5009525;28;20440;-65
2023/06/01 08:17:37;;;;;;;8.70;5.27;;;22.00;53.70;;;;;;5014337;28;20427;-65
2023/06/01 08:20:08;;;;;;;7.63;4.60;;;22.00;53.50;;;;;;5008038;28;20560;-65
2023/06/01 08:22:33;;;;;;;5.67;4.23;;;22.10;53.60;;;;;;5013694;28;21257;-65
2023/06/01 08:24:59;;;;;;;12.77;10.80;;;22.10;53.40;;;;;;5019932;28;20439;-65
2023/06/01 08:27:25;;;;;;;6.67;4.50;;;22.10;53.40;;;;;;5015975;28;20173;-65
2023/06/01 08:29:50;;;;;;;5.97;4.07;;;22.20;53.30;;;;;;5044090;28;20205;-65
2023/06/01 08:32:17;;;;;;;4.57;4.10;;;22.30;53.40;;;;;;5016749;28;20180;-65
2023/06/01 08:34:45;;;;;;;8.80;4.33;;;22.40;53.10;;;;;;5015693;28;20669;-65
2023/06/01 08:37:10;;;;;;;9.80;4.87;;;22.40;52.70;;;;;;5015107;28;20454;-65
2023/06/01 08:39:36;;;;;;;6.33;4.30;;;22.50;52.60;;;;;;5009345;28;20462;-65
2023/06/01 08:42:32;;;;;;;6.53;4.63;;;22.50;52.40;;;;;;5009029;28;20200;-65
2023/06/01 08:44:58;;;;;;;9.37;4.80;;;22.60;52.20;;;;;;5016822;28;20415;-65
2023/06/01 08:47:28;;;;;;;4.73;4.20;;;22.70;51.90;;;;;;5013296;28;20440;-65
2023/06/01 08:49:56;;;;;;;5.97;4.93;;;22.70;51.80;;;;;;5019649;28;20297;-65
2023/06/01 08:52:27;;;;;;;10.77;4.77;;;22.80;51.90;;;;;;5014068;28;20548;-65
2023/06/01 08:54:53;;;;;;;5.80;4.83;;;22.80;52.00;;;;;;5015794;28;20427;-65
2023/06/01 08:57:20;;;;;;;6.13;4.60;;;22.90;51.80;;;;;;5017085;28;20868;-65
2023/06/01 08:59:46;;;;;;;5.80;4.20;;;23.00;51.80;;;;;;5013459;28;20219;-65
2023/06/01 09:02:12;;;;;;;5.23;4.70;;;23.10;51.90;;;;;;5010767;28;20957;-65
2023/06/01 09:04:44;;;;;;;5.77;4.33;;;23.10;51.80;;;;;;5016397;28;20188;-65
2023/06/01 09:07:13;;;;;;;5.47;4.83;;;23.20;51.70;;;;;;5016186;28;20415;-65
2023/06/01 09:09:39;;;;;;;6.47;4.73;;;23.20;51.60;;;;;;5010625;28;20501;-65
2023/06/01 09:12:30;;;;;;;6.20;5.10;;;23.30;51.60;;;;;;5014023;28;21221;-65
2023/06/01 09:15:09;;;;;;;5.37;4.60;;;23.40;51.00;;;;;;5017305;28;20177;-65
2023/06/01 09:17:36;;;;;;;7.00;4.90;;;23.50;50.70;;;;;;5014139;28;20484;-65
2023/06/01 09:20:02;;;;;;;4.80;4.40;;;23.50;50.80;;;;;;5010968;28;20514;-65
2023/06/01 09:22:45;;;;;;;5.53;4.47;;;23.60;50.80;;;;;;5013051;28;20416;-65
2023/06/01 09:25:14;;;;;;;8.40;4.70;;;23.70;51.00;;;;;;5009974;28;20578;-65
2023/06/01 09:27:51;;;;;;;5.73;4.20;;;23.70;51.10;;;;;;5010872;28;20420;-65
2023/06/01 09:30:21;;;;;;;11.77;4.60;;;23.80;50.90;;;;;;5011453;28;20438;-65
2023/06/01 09:32:50;;;;;;;5.97;4.40;;;23.90;50.70;;;;;;5017365;28;21231;-65
2023/06/01 09:35:37;;;;;;;5.50;4.50;;;23.90;50.20;;;;;;5014597;28;20924;-65
2023/06/01 09:38:05;;;;;;;7.17;4.60;;;24.00;50.00;;;;;;5021011;28;20562;-65
2023/06/01 09:40:32;;;;;;;7.90;4.73;;;24.10;50.00;;;;;;5013225;28;20467;-65
2023/06/01 09:42:58;;;;;;;7.00;4.80;;;24.20;50.30;;;;;;5012424;28;20458;-65
2023/06/01 09:45:23;;;;;;;7.10;4.80;;;24.30;50.50;;;;;;5014665;28;20420;-65
2023/06/01 09:47:50;;;;;;;5.87;4.80;;;24.30;50.60;;;;;;5018862;28;20748;-65
2023/06/01 09:50:48;;;;;;;10.50;5.67;;;24.40;50.70;;;;;;5014914;28;20549;-65
2023/06/01 09:53:15;;;;;;;5.60;4.87;;;24.50;50.40;;;;;;5015008;28;20447;-65
2023/06/01 09:56:00;;;;;;;5.33;4.83;;;24.60;50.40;;;;;;5015352;28;20917;-65
2023/06/01 09:58:26;;;;;;;6.13;5.13;;;24.60;50.50;;;;;;5016473;28;20518;-65
2023/06/01 10:00:52;;;;;;;5.50;4.87;;;24.70;50.80;;;;;;5012381;28;20492;-65
2023/06/01 10:03:21;;;;;;;10.67;5.77;;;24.80;50.30;;;;;;5011926;28;20440;-65
2023/06/01 10:05:48;;;;;;;7.30;5.43;;;24.90;50.00;;;;;;5011666;28;20435;-65
2023/06/01 10:08:15;;;;;;;7.90;4.90;;;24.90;50.00;;;;;;5009958;28;20490;-65
2023/06/01 10:10:44;;;;;;;5.50;4.90;;;25.00;49.90;;;;;;5012829;28;20467;-65
2023/06/01 10:13:10;;;;;;;5.50;4.87;;;25.10;49.70;;;;;;5010496;28;20427;-65
2023/06/01 10:15:36;;;;;;;13.33;6.00;;;25.10;49.90;;;;;;5016516;28;20426;-65
2023/06/01 10:18:06;;;;;;;6.93;5.60;;;25.20;49.60;;;;;;5014697;28;20435;-65
2023/06/01 10:20:33;;;;;;;7.47;5.47;;;25.30;49.30;;;;;;5011958;28;20682;-64
2023/06/01 10:23:00;;;;;;;5.67;5.10;;;25.30;49.30;;;;;;5013867;28;21278;-65
2023/06/01 10:25:32;;;;;;;7.43;5.33;;;25.30;48.50;;;;;;5010870;28;20496;-65
2023/06/01 10:28:07;;;;;;;12.70;5.80;;;25.50;48.40;;;;;;5015479;28;20424;-65
2023/06/01 10:30:33;;;;;;;8.77;5.93;;;25.50;48.20;;;;;;5013195;28;20458;-65
2023/06/01 10:32:58;;;;;;;8.03;5.70;;;25.50;48.10;;;;;;5012153;28;20940;-65
2023/06/01 10:35:30;;;;;;;7.00;5.30;;;25.50;48.20;;;;;;5012445;28;20228;-65
2023/06/01 10:38:12;;;;;;;7.13;6.20;;;25.60;48.50;;;;;;5012059;28;20177;-65
2023/06/01 10:40:39;;;;;;;10.50;6.67;;;25.80;48.50;;;;;;5016365;28;20464;-65
2023/06/01 10:43:06;;;;;;;8.70;7.90;;;25.90;47.80;;;;;;5014221;28;20944;-65
2023/06/01 10:45:35;;;;;;;7.33;5.87;;;25.90;46.90;;;;;;5004408;28;20475;-65
2023/06/01 10:48:01;;;;;;;7.00;5.97;;;26.00;46.60;;;;;;5014954;28;20440;-65
2023/06/01 10:50:27;;;;;;;6.97;6.13;;;26.10;46.20;;;;;;5018888;28;20426;-65
2023/06/01 10:52:54;;;;;;;7.17;6.47;;;26.20;45.80;;;;;;5011261;28;20418;-65
2023/06/01 10:55:21;;;;;;;6.03;5.40;;;26.30;45.00;;;;;;5012158;28;20432;-65
2023/06/01 10:57:47;;;;;;;8.50;5.53;;;26.40;44.40;;;;;;5017646;28;21093;-65
2023/06/01 11:00:28;;;;;;;8.20;7.10;;;26.50;43.40;;;;;;5020120;28;20482;-65
2023/06/01 11:02:55;;;;;;;7.97;6.27;;;26.70;44.60;;;;;;5014966;28;20442;-65
2023/06/01 11:05:39;;;;;;;5.77;5.27;;;26.80;44.10;;;;;;5014131;28;20468;-65
2023/06/01 11:08:29;;;;;;;5.63;4.50;;;26.90;43.00;;;;;;5014293;28;20774;-65
2023/06/01 11:10:59;;;;;;;5.77;4.57;;;27.00;41.90;;;;;;5016238;28;20420;-65
2023/06/01 11:13:31;;;;;;;6.33;5.27;;;27.10;40.70;;;;;;5015828;28;20822;-64
2023/06/01 11:16:20;;;;;;;7.17;5.50;;;27.10;40.40;;;;;;5016039;28;20421;-64
2023/06/01 11:18:49;;;;;;;4.73;4.20;;;27.30;40.50;;;;;;5013356;28;20463;-65
2023/06/01 11:21:21;;;;;;;6.80;6.03;;;27.50;40.70;;;;;;5018152;28;20469;-64
2023/06/01 11:23:50;;;;;;;6.87;5.03;;;27.70;40.80;;;;;;5017876;28;20458;-64
2023/06/01 11:26:24;;;;;;;6.53;5.87;;;27.90;40.80;;;;;;5020259;28;20438;-64
2023/06/01 11:28:50;;;;;;;5.90;5.30;;;28.10;40.00;;;;;;5015871;28;20781;-64
2023/06/01 11:31:17;;;;;;;5.93;4.23;;;28.30;38.70;;;;;;5017269;28;20409;-65
2023/06/01 11:33:53;;;;;;;5.43;4.40;;;28.40;37.00;;;;;;5014345;28;20443;-65
2023/06/01 11:36:24;;;;;;;5.00;3.80;;;28.60;36.00;;;;;;5011582;28;20438;-65
2023/06/01 11:38:51;;;;;;;8.90;4.73;;;28.70;35.00;;;;;;5013302;28;20432;-65
2023/06/01 11:41:18;;;;;;;5.90;4.70;;;28.90;35.40;;;;;;5016100;28;20482;-65
2023/06/01 11:43:44;;;;;;;7.50;5.50;;;29.20;35.40;;;;;;5022604;28;20493;-65
2023/06/01 11:46:10;;;;;;;6.33;4.70;;;29.50;36.10;;;;;;5014779;28;20763;-65
2023/06/01 11:48:35;;;;;;;6.20;5.00;;;29.80;36.30;;;;;;5016474;28;20210;-65
2023/06/01 11:51:03;;;;;;;5.40;4.63;;;30.10;36.20;;;;;;5011402;28;20178;-65
2023/06/01 11:53:31;;;;;;;7.00;4.73;;;30.30;35.40;;;;;;5011720;28;20280;-65
2023/06/01 11:55:58;;;;;;;8.43;5.40;;;30.70;35.10;;;;;;5017949;28;21023;-65
2023/06/01 11:58:24;;;;;;;4.80;4.10;;;31.20;35.30;;;;;;5024722;28;20907;-65
2023/06/01 12:00:50;;;;;;;4.80;4.30;;;31.80;34.10;;;;;;5011829;28;20426;-65
2023/06/01 12:03:16;;;;;;;9.50;4.73;;;32.70;33.80;;;;;;5012510;28;20445;-65
2023/06/01 12:05:45;;;;;;;4.90;4.40;;;34.20;32.60;;;;;;5013509;28;20443;-65
2023/06/01 12:08:20;;;;;;;12.93;5.40;;;35.70;30.30;;;;;;5015250;28;20491;-65
2023/06/01 12:10:47;;;;;;;9.73;4.70;;;37.10;29.80;;;;;;5020266;28;20498;-65
2023/06/01 12:13:16;;;;;;;6.00;4.30;;;38.50;29.30;;;;;;5020330;28;20438;-65
2023/06/01 12:15:42;;;;;;;5.73;4.53;;;39.50;28.50;;;;;;5012844;28;20414;-65
2023/06/01 12:18:08;;;;;;;5.17;4.60;;;40.60;27.90;;;;;;5013865;28;20424;-65
2023/06/01 12:20:35;;;;;;;5.73;4.20;;;40.90;27.40;;;;;;5012897;28;20245;-66
2023/06/01 12:23:12;;;;;;;9.30;4.77;;;41.40;27.00;;;;;;5016128;28;20538;-65
2023/06/01 12:25:59;;;;;;;5.50;4.37;;;41.60;26.70;;;;;;5009160;28;20462;-66
2023/06/01 12:28:35;;;;;;;4.30;3.90;;;42.20;26.40;;;;;;5015904;28;20439;-65
2023/06/01 12:31:14;;;;;;;6.60;4.40;;;42.70;25.70;;;;;;5020853;28;20415;-65
2023/06/01 12:33:40;;;;;;;4.77;3.63;;;43.00;25.00;;;;;;5012694;28;20530;-65
2023/06/01 12:36:07;;;;;;;7.23;4.77;;;43.10;25.00;;;;;;5018945;28;21221;-65
2023/06/01 12:38:37;;;;;;;5.23;4.73;;;43.30;24.70;;;;;;5019850;28;20510;-66
2023/06/01 12:41:11;;;;;;;4.40;4.00;;;43.80;24.20;;;;;;5011809;28;20834;-65
2023/06/01 12:43:38;;;;;;;4.90;4.00;;;44.30;23.90;;;;;;5015042;28;20468;-66
2023/06/01 12:46:07;;;;;;;4.23;3.80;;;44.70;23.60;;;;;;5022362;28;20430;-66
2023/06/01 12:48:37;;;;;;;4.50;3.97;;;45.10;23.30;;;;;;5017248;28;20451;-65
2023/06/01 12:51:03;;;;;;;5.50;4.10;;;45.50;23.10;;;;;;5014076;28;20422;-65